Time;durP1;ratioP1;P1;durP2;ratioP2;P2;SDS_P1;SDS_P2;PMS_P1;PMS_P2;Temp;Humidity;BMP_temperature;BMP_pressure;BME280_temperature;BME280_humidity;BME280_pressure;Samples;Min_cycle;Max_cycle;Signal;HPM_P1;HPM_P2
2022/09/17 00:00:48;;;;;;;14.57;2.03;;;9.80;92.90;;;;;;5069161;28;20388;-71
2022/09/17 00:03:15;;;;;;;12.30;2.08;;;9.80;93.50;;;;;;5061770;28;20130;-71
2022/09/17 00:05:41;;;;;;;13.15;2.30;;;9.80;93.80;;;;;;5069115;28;20040;-71
2022/09/17 00:08:10;;;;;;;17.43;2.43;;;9.80;94.10;;;;;;5085922;28;20480;-71
2022/09/17 00:10:39;;;;;;;15.02;2.15;;;9.80;94.40;;;;;;5096238;28;20071;-71
2022/09/17 00:13:05;;;;;;;21.30;2.63;;;9.80;94.20;;;;;;5074381;28;20708;-71
2022/09/17 00:15:31;;;;;;;16.15;2.05;;;9.70;93.50;;;;;;5056872;28;20055;-71
2022/09/17 00:17:57;;;;;;;15.10;1.83;;;9.70;93.40;;;;;;5068329;28;20407;-71
2022/09/17 00:20:26;;;;;;;20.13;2.33;;;9.60;93.60;;;;;;5062449;28;20086;-71
2022/09/17 00:22:52;;;;;;;14.07;1.55;;;9.60;93.40;;;;;;5078533;28;20692;-71
2022/09/17 00:25:19;;;;;;;11.93;1.27;;;9.50;93.50;;;;;;5095429;28;20040;-71
2022/09/17 00:27:45;;;;;;;13.52;2.17;;;9.50;92.80;;;;;;5057967;28;20035;-71
2022/09/17 00:30:12;;;;;;;10.90;1.33;;;9.50;92.30;;;;;;5086783;28;20040;-71
2022/09/17 00:32:38;;;;;;;15.88;3.03;;;9.60;92.60;;;;;;5075295;28;20032;-71
2022/09/17 00:35:04;;;;;;;15.53;1.50;;;9.70;92.40;;;;;;5065999;28;20513;-71
2022/09/17 00:37:29;;;;;;;13.32;1.40;;;9.80;92.10;;;;;;5058724;28;20388;-71
2022/09/17 00:39:55;;;;;;;17.20;1.80;;;9.80;92.50;;;;;;5073177;28;20046;-71
2022/09/17 00:42:22;;;;;;;8.90;1.40;;;9.80;92.50;;;;;;5058243;28;20107;-71
2022/09/17 00:44:51;;;;;;;12.10;1.55;;;9.80;91.70;;;;;;5089434;28;20051;-71
2022/09/17 00:47:33;;;;;;;9.65;1.52;;;9.90;89.00;;;;;;5085401;28;20536;-71
2022/09/17 00:50:16;;;;;;;8.77;1.23;;;10.00;89.30;;;;;;5095849;28;20040;-71
2022/09/17 00:53:13;;;;;;;6.20;0.80;;;10.10;89.30;;;;;;5084786;28;20488;-71
2022/09/17 00:56:07;;;;;;;9.02;0.93;;;10.00;89.50;;;;;;5072463;28;20131;-71
2022/09/17 00:58:35;;;;;;;9.65;0.70;;;10.00;89.60;;;;;;5049964;28;20527;-71
2022/09/17 01:01:01;;;;;;;10.63;1.13;;;10.00;90.20;;;;;;5072671;28;20040;-71
2022/09/17 01:03:27;;;;;;;6.47;1.53;;;9.90;90.40;;;;;;5069102;28;20042;-71
2022/09/17 01:06:24;;;;;;;7.80;1.00;;;9.90;90.80;;;;;;5085081;28;20087;-71
2022/09/17 01:09:12;;;;;;;4.97;0.52;;;9.80;90.80;;;;;;5084873;28;20036;-71
2022/09/17 01:11:46;;;;;;;6.78;0.95;;;9.70;90.30;;;;;;5107423;28;20058;-72
2022/09/17 01:14:18;;;;;;;8.32;0.80;;;9.60;90.80;;;;;;5073451;28;20094;-72
2022/09/17 01:17:01;;;;;;;6.88;1.27;;;9.50;91.00;;;;;;5067707;28;20040;-72
2022/09/17 01:19:48;;;;;;;10.85;1.55;;;9.50;91.70;;;;;;5083428;28;20048;-72
2022/09/17 01:22:37;;;;;;;11.55;1.42;;;9.40;91.90;;;;;;5096156;28;20508;-72
2022/09/17 01:25:23;;;;;;;10.75;1.20;;;9.50;92.50;;;;;;5034235;28;20061;-72
2022/09/17 01:28:10;;;;;;;15.20;1.38;;;9.50;92.90;;;;;;5075129;28;20506;-72
2022/09/17 01:31:00;;;;;;;7.22;0.75;;;9.50;93.60;;;;;;5089424;28;20086;-72
2022/09/17 01:34:00;;;;;;;10.65;1.55;;;9.40;94.20;;;;;;5074608;28;20041;-72
2022/09/17 01:36:38;;;;;;;6.28;1.10;;;9.40;94.30;;;;;;5084871;28;20064;-72
2022/09/17 01:39:23;;;;;;;12.05;1.60;;;9.40;94.60;;;;;;5084727;28;20137;-72
2022/09/17 01:42:16;;;;;;;14.35;1.80;;;9.30;94.70;;;;;;5066343;28;20048;-71
2022/09/17 01:44:51;;;;;;;13.80;1.48;;;9.30;95.10;;;;;;5074046;28;20123;-71
2022/09/17 01:47:41;;;;;;;14.93;1.27;;;9.30;95.30;;;;;;5105444;28;20143;-72
2022/09/17 01:50:11;;;;;;;11.60;1.10;;;9.40;95.50;;;;;;5085252;28;20460;-72
2022/09/17 01:52:40;;;;;;;12.05;1.40;;;9.50;95.40;;;;;;5078815;28;20044;-72
2022/09/17 01:55:14;;;;;;;10.05;1.00;;;9.50;95.10;;;;;;5086116;28;20048;-72
2022/09/17 01:57:40;;;;;;;5.15;0.90;;;9.60;93.10;;;;;;5099040;28;20111;-72
2022/09/17 02:00:10;;;;;;;7.57;0.90;;;9.60;93.40;;;;;;5076255;28;20126;-72
2022/09/17 02:02:59;;;;;;;10.05;1.10;;;9.60;93.90;;;;;;5068763;28;20047;-72
2022/09/17 02:05:38;;;;;;;11.85;1.42;;;9.50;94.10;;;;;;5098171;28;20105;-72
2022/09/17 02:08:09;;;;;;;9.55;0.90;;;9.50;93.50;;;;;;5085924;28;20040;-72
2022/09/17 02:10:43;;;;;;;10.05;1.45;;;9.60;93.60;;;;;;5089076;28;20466;-72
2022/09/17 02:13:25;;;;;;;13.88;2.13;;;9.70;92.50;;;;;;5094216;28;20052;-71
2022/09/17 02:15:57;;;;;;;9.85;1.80;;;9.70;91.50;;;;;;5089515;28;20128;-71
2022/09/17 02:18:25;;;;;;;11.15;1.00;;;9.70;91.60;;;;;;5066498;28;20048;-71
2022/09/17 02:21:07;;;;;;;8.35;1.27;;;9.60;91.90;;;;;;5085215;28;20044;-72
2022/09/17 02:23:51;;;;;;;11.55;1.30;;;9.50;92.60;;;;;;5088279;28;20067;-72
2022/09/17 02:26:19;;;;;;;9.40;1.00;;;9.40;92.50;;;;;;5088645;28;20486;-72
2022/09/17 02:28:58;;;;;;;10.85;1.10;;;9.30;93.30;;;;;;5088310;28;20036;-72
2022/09/17 02:31:24;;;;;;;12.00;1.33;;;9.30;93.70;;;;;;5069909;28;20086;-71
2022/09/17 02:34:00;;;;;;;9.73;1.57;;;9.20;94.00;;;;;;5068247;28;20080;-71
2022/09/17 02:36:26;;;;;;;11.75;1.40;;;9.10;94.00;;;;;;5065146;28;20120;-71
2022/09/17 02:39:00;;;;;;;12.43;1.55;;;9.10;94.20;;;;;;5070853;28;20040;-71
2022/09/17 02:41:51;;;;;;;9.70;0.95;;;9.10;94.20;;;;;;5088180;28;20115;-71
2022/09/17 02:44:23;;;;;;;10.73;1.35;;;9.10;94.00;;;;;;5087849;28;20035;-71
2022/09/17 02:46:55;;;;;;;17.10;1.58;;;9.10;94.00;;;;;;5069441;28;20045;-72
2022/09/17 02:49:48;;;;;;;8.70;1.13;;;9.20;93.90;;;;;;5087734;28;20054;-72
2022/09/17 02:52:53;;;;;;;11.43;0.95;;;9.30;93.70;;;;;;5069744;28;20048;-72
2022/09/17 02:55:24;;;;;;;14.23;1.40;;;9.30;93.40;;;;;;5061051;28;20055;-72
2022/09/17 02:57:53;;;;;;;15.23;1.83;;;9.40;90.80;;;;;;5086294;28;20492;-72
2022/09/17 03:00:21;;;;;;;17.52;2.17;;;9.60;91.70;;;;;;5112386;27;20051;-72
2022/09/17 03:02:59;;;;;;;15.43;2.45;;;9.60;91.90;;;;;;5094568;28;20047;-72
2022/09/17 03:05:27;;;;;;;13.63;1.77;;;9.70;91.40;;;;;;5095199;28;20095;-72
2022/09/17 03:07:57;;;;;;;11.65;1.55;;;9.70;91.00;;;;;;5071838;28;20095;-72
2022/09/17 03:10:26;;;;;;;7.40;0.70;;;9.60;89.80;;;;;;5096458;28;20514;-72
2022/09/17 03:12:52;;;;;;;8.82;0.80;;;9.60;88.60;;;;;;5097801;28;20044;-72
2022/09/17 03:15:18;;;;;;;8.45;0.88;;;9.50;89.30;;;;;;5070654;28;20040;-72
2022/09/17 03:17:44;;;;;;;9.30;1.00;;;9.40;89.20;;;;;;5068176;28;20059;-72
2022/09/17 03:20:09;;;;;;;7.87;1.30;;;9.30;89.00;;;;;;5053489;28;20051;-72
2022/09/17 03:22:35;;;;;;;9.40;0.90;;;9.20;89.40;;;;;;5088962;28;20095;-72
2022/09/17 03:25:01;;;;;;;8.83;0.90;;;9.10;87.60;;;;;;5059272;28;20051;-72
2022/09/17 03:27:26;;;;;;;11.90;1.20;;;9.00;88.90;;;;;;5086720;28;20032;-72
2022/09/17 03:29:52;;;;;;;7.00;1.07;;;9.00;88.80;;;;;;5061108;28;20226;-72
2022/09/17 03:32:18;;;;;;;11.80;1.63;;;8.90;89.10;;;;;;5067084;28;20476;-72
2022/09/17 03:34:45;;;;;;;10.30;1.23;;;8.90;89.20;;;;;;5062167;28;20039;-72
2022/09/17 03:37:11;;;;;;;9.10;1.13;;;8.90;88.90;;;;;;5087176;28;20040;-72
2022/09/17 03:39:37;;;;;;;9.32;0.98;;;8.90;89.10;;;;;;5093924;28;20435;-72
2022/09/17 03:42:03;;;;;;;7.83;0.90;;;8.90;88.70;;;;;;5068940;28;20131;-72
2022/09/17 03:44:29;;;;;;;9.03;1.43;;;9.00;88.20;;;;;;5086670;28;20523;-72
2022/09/17 03:46:55;;;;;;;8.80;1.03;;;9.00;88.60;;;;;;5099964;28;20050;-72
2022/09/17 03:49:22;;;;;;;8.10;0.82;;;8.90;88.70;;;;;;5067130;28;20486;-72
2022/09/17 03:51:48;;;;;;;7.85;1.58;;;8.90;89.10;;;;;;5079043;28;20047;-72
2022/09/17 03:54:14;;;;;;;8.77;1.33;;;8.90;87.00;;;;;;5062713;28;20713;-72
2022/09/17 03:56:40;;;;;;;9.10;1.10;;;8.90;87.90;;;;;;5066850;28;20161;-71
2022/09/17 03:59:05;;;;;;;9.00;1.00;;;9.00;87.40;;;;;;5069146;28;20474;-72
2022/09/17 04:01:31;;;;;;;10.23;0.90;;;9.00;86.70;;;;;;5094037;28;20078;-72
2022/09/17 04:03:57;;;;;;;8.53;0.90;;;9.00;87.40;;;;;;5066009;28;20040;-72
2022/09/17 04:06:23;;;;;;;6.77;1.00;;;9.10;86.70;;;;;;5069271;28;20039;-72
2022/09/17 04:08:49;;;;;;;13.00;1.33;;;9.20;86.20;;;;;;5095561;28;20913;-72
2022/09/17 04:11:14;;;;;;;14.07;1.20;;;9.30;86.80;;;;;;5089717;28;20410;-72
2022/09/17 04:13:40;;;;;;;14.50;1.77;;;9.40;87.40;;;;;;5085904;28;20035;-72
2022/09/17 04:16:06;;;;;;;14.43;1.97;;;9.50;86.80;;;;;;5086149;28;20124;-72
2022/09/17 04:18:32;;;;;;;16.00;1.30;;;9.70;86.80;;;;;;5069182;28;20500;-72
2022/09/17 04:20:59;;;;;;;13.52;1.73;;;9.80;86.80;;;;;;5068812;28;20071;-72
2022/09/17 04:23:24;;;;;;;17.60;1.70;;;9.80;87.00;;;;;;5085849;28;20119;-72
2022/09/17 04:25:50;;;;;;;17.57;2.83;;;9.70;87.30;;;;;;5071175;28;20032;-72
2022/09/17 04:28:16;;;;;;;17.03;1.63;;;9.60;88.80;;;;;;5074666;28;20036;-72
2022/09/17 04:30:44;;;;;;;16.40;2.30;;;9.50;89.40;;;;;;5070025;28;20032;-72
2022/09/17 04:33:10;;;;;;;16.55;2.83;;;9.30;90.10;;;;;;5069005;28;20039;-72
2022/09/17 04:35:36;;;;;;;17.60;2.53;;;9.20;90.80;;;;;;5068693;28;20043;-72
2022/09/17 04:38:01;;;;;;;17.40;2.10;;;9.10;91.50;;;;;;5084807;28;20488;-72
2022/09/17 04:40:28;;;;;;;14.33;1.70;;;9.00;91.80;;;;;;5060553;28;20048;-72
2022/09/17 04:42:55;;;;;;;18.20;2.70;;;8.90;92.10;;;;;;5068485;28;20101;-72
2022/09/17 04:45:22;;;;;;;10.48;1.58;;;8.80;92.20;;;;;;5076093;28;20050;-72
2022/09/17 04:47:49;;;;;;;7.88;1.48;;;8.80;92.30;;;;;;5095604;28;20043;-72
2022/09/17 04:50:19;;;;;;;12.63;2.15;;;8.70;92.40;;;;;;5084674;28;20093;-72
2022/09/17 04:52:45;;;;;;;10.80;1.27;;;8.60;92.30;;;;;;5086004;28;20392;-72
2022/09/17 04:55:12;;;;;;;10.93;1.65;;;8.60;92.30;;;;;;5063772;28;20450;-72
2022/09/17 04:57:38;;;;;;;11.90;1.77;;;8.60;92.20;;;;;;5072796;28;20035;-72
2022/09/17 05:00:09;;;;;;;15.60;2.13;;;8.60;91.60;;;;;;5055955;28;20096;-72
2022/09/17 05:02:35;;;;;;;9.85;0.80;;;8.70;89.90;;;;;;5066169;28;20404;-72
2022/09/17 05:05:00;;;;;;;9.90;1.20;;;8.90;89.30;;;;;;5084550;28;20048;-72
2022/09/17 05:07:26;;;;;;;9.03;1.33;;;9.00;87.80;;;;;;5046096;28;20136;-72
2022/09/17 05:09:52;;;;;;;13.07;1.23;;;9.00;88.70;;;;;;5084286;28;20040;-72
2022/09/17 05:12:18;;;;;;;13.43;1.73;;;9.10;88.50;;;;;;5050267;28;20131;-72
2022/09/17 05:14:44;;;;;;;10.30;0.98;;;9.10;88.70;;;;;;5088290;28;20556;-72
2022/09/17 05:17:10;;;;;;;11.97;2.50;;;9.10;89.40;;;;;;5055799;28;20039;-71
2022/09/17 05:19:35;;;;;;;9.07;1.07;;;9.10;89.00;;;;;;5068262;28;20097;-71
2022/09/17 05:22:01;;;;;;;8.70;0.80;;;9.10;88.80;;;;;;5088000;28;20051;-71
2022/09/17 05:24:27;;;;;;;12.05;1.63;;;9.10;89.40;;;;;;5084188;28;20057;-71
2022/09/17 05:26:53;;;;;;;13.03;1.37;;;9.00;89.80;;;;;;5081196;28;20496;-71
2022/09/17 05:29:19;;;;;;;11.07;1.10;;;9.00;89.30;;;;;;5090311;28;20555;-71
2022/09/17 05:31:45;;;;;;;8.67;0.67;;;9.00;90.00;;;;;;5069842;28;20447;-71
2022/09/17 05:34:10;;;;;;;11.93;0.87;;;9.10;89.80;;;;;;5069853;28;20043;-71
2022/09/17 05:36:36;;;;;;;7.40;0.97;;;9.10;89.80;;;;;;5053189;28;20451;-71
2022/09/17 05:39:02;;;;;;;7.20;0.43;;;9.20;89.80;;;;;;5038887;28;20044;-71
2022/09/17 05:41:28;;;;;;;6.63;0.83;;;9.20;89.20;;;;;;5085461;28;20044;-71
2022/09/17 05:43:54;;;;;;;8.10;1.07;;;9.30;89.60;;;;;;5069862;28;20036;-71
2022/09/17 05:46:19;;;;;;;6.87;0.70;;;9.30;89.50;;;;;;5066491;28;20093;-71
2022/09/17 05:48:45;;;;;;;14.07;1.47;;;9.30;89.50;;;;;;5070911;28;20072;-71
2022/09/17 05:51:11;;;;;;;6.33;0.67;;;9.40;89.20;;;;;;5082618;28;20509;-71
2022/09/17 05:53:37;;;;;;;5.30;0.60;;;9.40;88.60;;;;;;5058343;28;20043;-71
2022/09/17 05:56:03;;;;;;;2.97;0.60;;;9.50;88.70;;;;;;5054512;28;20255;-71
2022/09/17 05:58:28;;;;;;;4.90;0.87;;;9.50;88.70;;;;;;5056395;28;20036;-71
2022/09/17 06:00:54;;;;;;;4.23;0.53;;;9.50;87.80;;;;;;5071375;28;20340;-71
2022/09/17 06:03:21;;;;;;;5.57;0.40;;;9.40;88.80;;;;;;5075694;28;20058;-71
2022/09/17 06:05:57;;;;;;;5.50;0.50;;;9.40;89.10;;;;;;5054688;28;20616;-71
2022/09/17 06:08:23;;;;;;;3.85;0.25;;;9.40;88.10;;;;;;5085687;28;20127;-71
2022/09/17 06:10:49;;;;;;;3.03;0.20;;;9.30;88.00;;;;;;5070806;28;20141;-71
2022/09/17 06:13:16;;;;;;;2.60;0.30;;;9.30;87.40;;;;;;5069065;28;20496;-71
2022/09/17 06:15:47;;;;;;;4.40;0.57;;;9.40;87.20;;;;;;5067984;28;20052;-71
2022/09/17 06:18:13;;;;;;;6.03;0.30;;;9.50;85.80;;;;;;5103110;28;20537;-71
2022/09/17 06:20:39;;;;;;;5.13;0.50;;;9.60;85.80;;;;;;5086045;28;20036;-71
2022/09/17 06:23:04;;;;;;;9.87;1.07;;;9.60;87.20;;;;;;5064658;28;20060;-71
2022/09/17 06:25:30;;;;;;;9.43;0.90;;;9.70;88.20;;;;;;5086945;28;20044;-71
2022/09/17 06:27:56;;;;;;;4.57;0.43;;;9.60;88.70;;;;;;5091827;28;20412;-72
2022/09/17 06:30:22;;;;;;;11.07;0.70;;;9.60;90.10;;;;;;5074215;28;20042;-72
2022/09/17 06:32:47;;;;;;;7.63;1.23;;;9.60;90.70;;;;;;5054329;28;20048;-72
2022/09/17 06:35:13;;;;;;;3.97;0.47;;;9.70;90.80;;;;;;5071236;28;20093;-72
2022/09/17 06:37:39;;;;;;;4.17;0.50;;;9.80;90.90;;;;;;5060476;28;20081;-72
2022/09/17 06:40:06;;;;;;;5.57;0.43;;;9.90;90.60;;;;;;5090521;28;20047;-72
2022/09/17 06:42:32;;;;;;;8.82;0.68;;;10.10;90.00;;;;;;5051036;28;20039;-72
2022/09/17 06:44:58;;;;;;;4.47;0.60;;;10.30;89.80;;;;;;5047552;28;20109;-72
2022/09/17 06:47:24;;;;;;;8.87;0.87;;;10.50;90.50;;;;;;5087521;28;20036;-72
2022/09/17 06:49:50;;;;;;;6.53;0.75;;;10.70;90.20;;;;;;5065834;28;20058;-72
2022/09/17 06:52:16;;;;;;;5.78;0.30;;;10.80;89.00;;;;;;5096832;28;20040;-72
2022/09/17 06:54:42;;;;;;;2.50;0.30;;;10.90;88.40;;;;;;5071303;28;20614;-72
2022/09/17 06:57:08;;;;;;;4.88;0.30;;;10.80;86.20;;;;;;5052958;28;20074;-72
2022/09/17 06:59:33;;;;;;;2.60;0.20;;;10.80;87.20;;;;;;5088456;28;20051;-72
2022/09/17 07:01:59;;;;;;;2.17;0.20;;;10.70;86.60;;;;;;5070458;28;20039;-72
2022/09/17 07:04:25;;;;;;;2.93;0.30;;;10.60;84.50;;;;;;5074586;28;20114;-72
2022/09/17 07:06:50;;;;;;;4.07;0.30;;;10.60;84.50;;;;;;5054303;28;20032;-72
2022/09/17 07:09:16;;;;;;;4.60;0.40;;;10.50;85.60;;;;;;5071102;28;20071;-71
2022/09/17 07:11:42;;;;;;;3.40;0.37;;;10.40;86.40;;;;;;5085291;28;20135;-71
2022/09/17 07:14:07;;;;;;;6.77;0.60;;;10.30;86.70;;;;;;5084796;28;20040;-71
2022/09/17 07:16:37;;;;;;;4.70;0.47;;;10.20;87.70;;;;;;5085336;28;20040;-71
2022/09/17 07:19:03;;;;;;;3.30;0.22;;;10.10;88.50;;;;;;5049777;28;20514;-72
2022/09/17 07:21:29;;;;;;;3.03;0.30;;;10.10;89.20;;;;;;5085156;28;20056;-72
2022/09/17 07:23:54;;;;;;;4.50;0.40;;;10.00;89.60;;;;;;5068957;28;20097;-72
2022/09/17 07:26:20;;;;;;;8.83;0.73;;;10.00;89.20;;;;;;5051625;28;20540;-72
2022/09/17 07:28:46;;;;;;;5.87;0.50;;;9.90;90.20;;;;;;5069282;28;20142;-72
2022/09/17 07:31:12;;;;;;;4.73;0.40;;;9.90;90.20;;;;;;5065351;28;20075;-72
2022/09/17 07:33:39;;;;;;;3.53;0.38;;;9.80;90.30;;;;;;5070177;28;20496;-72
2022/09/17 07:36:11;;;;;;;6.75;0.40;;;9.90;91.10;;;;;;5067936;28;20082;-72
2022/09/17 07:38:38;;;;;;;5.50;0.50;;;10.00;91.20;;;;;;5086551;28;20425;-72
2022/09/17 07:41:06;;;;;;;5.68;0.45;;;10.20;91.40;;;;;;5068754;28;20040;-72
2022/09/17 07:43:34;;;;;;;10.18;1.15;;;10.40;91.70;;;;;;5080699;28;20052;-72
2022/09/17 07:46:01;;;;;;;7.40;0.95;;;10.70;91.90;;;;;;5067591;28;20534;-72
2022/09/17 07:48:28;;;;;;;5.70;0.60;;;10.90;91.40;;;;;;5063751;28;20101;-72
2022/09/17 07:50:54;;;;;;;5.13;0.50;;;11.00;90.30;;;;;;5067717;28;20039;-72
2022/09/17 07:53:21;;;;;;;9.18;0.82;;;11.00;89.60;;;;;;5052004;28;20047;-72
2022/09/17 07:55:54;;;;;;;5.10;0.70;;;11.00;90.50;;;;;;5084540;28;20044;-72
2022/09/17 07:58:21;;;;;;;6.90;0.85;;;11.10;90.80;;;;;;5063815;28;20043;-72
2022/09/17 08:00:47;;;;;;;5.40;0.50;;;11.10;90.70;;;;;;5085652;28;20055;-72
2022/09/17 08:03:13;;;;;;;2.30;0.20;;;11.20;90.80;;;;;;5084062;28;20564;-72
2022/09/17 08:05:39;;;;;;;2.30;0.30;;;11.20;90.20;;;;;;5088778;28;20127;-72
2022/09/17 08:08:05;;;;;;;3.20;0.20;;;11.00;87.00;;;;;;5047497;28;20040;-71
2022/09/17 08:10:31;;;;;;;3.40;0.23;;;10.80;88.70;;;;;;5067270;28;20036;-72
2022/09/17 08:12:57;;;;;;;4.63;0.70;;;10.60;88.80;;;;;;5085432;28;20070;-72
2022/09/17 08:15:24;;;;;;;4.68;0.30;;;10.50;88.80;;;;;;5032871;28;20053;-72
2022/09/17 08:17:50;;;;;;;2.22;0.30;;;10.40;89.20;;;;;;5068231;28;20047;-72
2022/09/17 08:20:16;;;;;;;5.85;0.77;;;10.40;89.90;;;;;;5084669;28;20058;-72
2022/09/17 08:22:42;;;;;;;7.22;0.60;;;10.50;90.80;;;;;;5088788;28;20048;-72
2022/09/17 08:25:09;;;;;;;9.00;0.97;;;10.80;91.30;;;;;;5045812;28;20051;-72
2022/09/17 08:27:38;;;;;;;6.47;0.93;;;11.00;91.70;;;;;;5053229;28;20279;-72
2022/09/17 08:30:06;;;;;;;6.03;0.70;;;11.20;91.10;;;;;;5053046;28;20044;-71
2022/09/17 08:32:31;;;;;;;5.83;0.63;;;11.40;89.40;;;;;;5064175;28;20296;-71
2022/09/17 08:34:57;;;;;;;5.93;0.60;;;11.50;89.00;;;;;;5084984;28;20278;-72
2022/09/17 08:37:23;;;;;;;3.87;0.50;;;11.50;87.90;;;;;;5045699;28;20035;-72
2022/09/17 08:39:48;;;;;;;8.40;0.80;;;11.40;86.70;;;;;;5044125;28;20046;-71
2022/09/17 08:42:26;;;;;;;4.90;0.30;;;11.30;85.30;;;;;;5068442;28;20082;-72
2022/09/17 08:44:55;;;;;;;3.50;0.82;;;11.40;85.80;;;;;;5061438;28;20051;-73
2022/09/17 08:47:44;;;;;;;4.30;0.50;;;11.30;86.50;;;;;;5049083;28;20484;-72
2022/09/17 08:50:41;;;;;;;3.93;0.40;;;11.20;85.90;;;;;;5085898;28;20784;-72
2022/09/17 08:53:31;;;;;;;11.27;1.00;;;11.20;85.90;;;;;;5063483;28;20289;-71
2022/09/17 08:56:01;;;;;;;7.75;1.17;;;11.30;87.10;;;;;;5080531;28;20081;-72
2022/09/17 08:58:40;;;;;;;7.57;0.80;;;11.50;86.70;;;;;;5086700;28;20492;-72
2022/09/17 09:01:26;;;;;;;8.33;1.20;;;11.70;86.90;;;;;;5069374;28;20657;-71
2022/09/17 09:04:32;;;;;;;12.07;0.83;;;12.00;85.90;;;;;;5084063;28;20987;-72
2022/09/17 09:07:03;;;;;;;5.43;0.50;;;12.20;84.10;;;;;;5082944;28;20282;-71
2022/09/17 09:09:42;;;;;;;5.70;0.67;;;12.50;84.60;;;;;;5080902;28;20270;-71
2022/09/17 09:12:25;;;;;;;7.13;0.70;;;12.70;80.80;;;;;;5084238;28;20270;-72
2022/09/17 09:15:20;;;;;;;5.70;0.70;;;12.90;80.70;;;;;;5063213;28;20317;-72
2022/09/17 09:17:48;;;;;;;9.03;1.07;;;13.10;80.20;;;;;;5059690;28;20288;-72
2022/09/17 09:20:34;;;;;;;4.47;0.80;;;13.30;79.30;;;;;;5083453;28;20278;-72
2022/09/17 09:23:16;;;;;;;5.23;0.63;;;13.60;77.20;;;;;;5062687;28;20303;-72
2022/09/17 09:25:54;;;;;;;5.77;0.40;;;13.70;78.00;;;;;;5054495;28;20360;-72
2022/09/17 09:28:44;;;;;;;4.43;0.63;;;13.50;76.90;;;;;;5062766;28;20283;-71
2022/09/17 09:31:16;;;;;;;6.47;0.40;;;13.20;76.10;;;;;;5080993;28;20966;-72
2022/09/17 09:33:43;;;;;;;6.87;0.67;;;13.00;77.30;;;;;;5080914;28;20744;-72
2022/09/17 09:36:14;;;;;;;3.40;0.47;;;13.00;77.70;;;;;;5065718;28;20285;-72
2022/09/17 09:39:03;;;;;;;4.87;0.60;;;13.10;77.90;;;;;;5063180;28;20290;-72
2022/09/17 09:41:42;;;;;;;5.40;0.63;;;13.20;78.30;;;;;;5082381;28;20294;-73
2022/09/17 09:44:13;;;;;;;6.93;0.50;;;13.60;78.60;;;;;;5062213;28;20284;-72
2022/09/17 09:46:51;;;;;;;4.37;0.60;;;14.00;77.90;;;;;;5080947;28;20292;-71
2022/09/17 09:49:35;;;;;;;4.53;0.40;;;13.90;74.90;;;;;;5082376;28;20624;-71
2022/09/17 09:52:19;;;;;;;7.60;0.90;;;13.80;75.40;;;;;;5064874;28;20289;-71
2022/09/17 09:55:16;;;;;;;6.23;0.60;;;13.60;77.00;;;;;;5084133;28;20385;-71
2022/09/17 09:57:44;;;;;;;5.07;0.70;;;13.60;78.80;;;;;;5077262;28;20763;-71
2022/09/17 10:00:25;;;;;;;8.03;0.60;;;13.50;75.20;;;;;;5059020;28;20348;-71
2022/09/17 10:03:18;;;;;;;4.17;0.20;;;13.40;74.50;;;;;;5062402;28;20278;-71
2022/09/17 10:05:53;;;;;;;4.50;0.40;;;13.40;74.60;;;;;;5081922;28;20298;-71
2022/09/17 10:08:19;;;;;;;2.30;0.22;;;13.60;75.00;;;;;;5082613;28;20266;-71
2022/09/17 10:11:00;;;;;;;3.90;0.50;;;13.70;73.10;;;;;;5067882;28;20144;-71
2022/09/17 10:13:28;;;;;;;2.30;0.20;;;13.60;73.00;;;;;;5082917;28;20044;-71
2022/09/17 10:15:53;;;;;;;6.27;0.50;;;13.60;73.50;;;;;;5069635;28;21249;-71
2022/09/17 10:18:24;;;;;;;7.87;1.00;;;13.70;73.70;;;;;;5069846;28;20282;-71
2022/09/17 10:20:58;;;;;;;7.67;0.50;;;14.00;74.00;;;;;;5070494;28;20082;-71
2022/09/17 10:23:27;;;;;;;4.37;0.57;;;14.30;73.20;;;;;;5085222;28;20294;-71
2022/09/17 10:25:54;;;;;;;1.13;0.30;;;14.10;73.40;;;;;;5070955;28;20304;-71
2022/09/17 10:28:49;;;;;;;1.60;0.20;;;13.60;75.00;;;;;;5071530;28;20283;-71
2022/09/17 10:31:15;;;;;;;5.30;0.40;;;13.00;76.00;;;;;;5036369;28;20378;-71
2022/09/17 10:34:01;;;;;;;2.50;0.60;;;12.60;78.00;;;;;;5070571;28;20333;-71
2022/09/17 10:36:44;;;;;;;3.08;0.40;;;12.20;80.90;;;;;;5086471;28;20830;-71
2022/09/17 10:39:33;;;;;;;3.40;0.70;;;11.80;81.80;;;;;;5070718;28;20036;-71
2022/09/17 10:42:25;;;;;;;3.27;0.33;;;11.50;82.70;;;;;;5061289;28;20333;-71
2022/09/17 10:44:53;;;;;;;7.50;0.83;;;11.30;84.40;;;;;;5083200;28;20298;-72
2022/09/17 10:47:22;;;;;;;5.93;0.60;;;11.20;85.60;;;;;;5071066;28;20767;-71
2022/09/17 10:49:53;;;;;;;3.80;0.50;;;11.20;86.10;;;;;;5068673;28;20282;-71
2022/09/17 10:52:34;;;;;;;2.47;1.00;;;11.00;85.70;;;;;;5071855;28;20278;-71
2022/09/17 10:55:49;;;;;;;4.33;0.40;;;10.80;86.40;;;;;;5087122;28;20281;-71
2022/09/17 10:58:46;;;;;;;3.73;0.50;;;10.70;85.00;;;;;;5009029;28;20280;-71
2022/09/17 11:01:27;;;;;;;6.77;0.60;;;10.70;86.60;;;;;;5077688;28;20270;-71
2022/09/17 11:04:15;;;;;;;3.20;0.50;;;10.60;86.30;;;;;;5088320;28;20335;-71
2022/09/17 11:07:09;;;;;;;4.90;0.40;;;10.60;87.20;;;;;;5089227;28;20282;-71
2022/09/17 11:10:11;;;;;;;6.57;1.33;;;10.80;87.70;;;;;;5085100;28;20265;-71
2022/09/17 11:13:09;;;;;;;4.28;0.40;;;11.20;88.30;;;;;;5078387;28;21306;-71
2022/09/17 11:15:43;;;;;;;9.13;0.87;;;11.70;88.60;;;;;;5071259;28;20045;-72
2022/09/17 11:18:22;;;;;;;10.13;1.40;;;12.30;87.90;;;;;;5077935;28;20282;-73
2022/09/17 11:21:15;;;;;;;10.13;1.07;;;12.40;86.90;;;;;;5068368;28;20559;-72
2022/09/17 11:23:53;;;;;;;8.57;0.70;;;11.90;87.30;;;;;;5102525;27;20704;-73
2022/09/17 11:26:50;;;;;;;10.40;1.10;;;11.40;88.80;;;;;;5067212;28;20371;-72
2022/09/17 11:29:51;;;;;;;10.97;1.53;;;11.10;89.50;;;;;;5068432;28;20281;-72
2022/09/17 11:32:28;;;;;;;8.03;0.93;;;11.00;90.90;;;;;;5083034;28;20446;-72
2022/09/17 11:35:00;;;;;;;7.17;0.70;;;11.00;92.20;;;;;;5084356;28;20285;-72
2022/09/17 11:37:30;;;;;;;8.70;1.00;;;11.10;92.00;;;;;;5067346;28;20281;-72
2022/09/17 11:40:13;;;;;;;6.00;0.77;;;11.20;91.40;;;;;;5094347;28;20366;-71
2022/09/17 11:42:58;;;;;;;10.90;1.27;;;11.30;91.10;;;;;;5090481;28;20305;-72
2022/09/17 11:45:28;;;;;;;9.80;1.33;;;11.60;91.90;;;;;;5068416;28;20309;-72
2022/09/17 11:48:12;;;;;;;7.37;1.17;;;11.90;89.70;;;;;;5084626;28;20391;-73
2022/09/17 11:50:57;;;;;;;16.90;1.87;;;12.20;89.60;;;;;;5084318;28;20353;-72
2022/09/17 11:53:36;;;;;;;8.32;1.17;;;12.50;89.40;;;;;;5080567;28;21263;-72
2022/09/17 11:56:17;;;;;;;7.80;1.33;;;12.80;88.50;;;;;;5082855;28;20522;-72
2022/09/17 11:58:50;;;;;;;8.83;1.13;;;12.90;80.20;;;;;;5084675;28;20282;-72
2022/09/17 12:01:25;;;;;;;12.03;1.40;;;13.00;79.30;;;;;;5084665;28;20306;-72
2022/09/17 12:04:11;;;;;;;13.55;1.60;;;13.10;76.80;;;;;;5084857;28;20309;-72
2022/09/17 12:06:49;;;;;;;13.20;1.57;;;13.20;76.10;;;;;;5085929;28;20055;-72
2022/09/17 12:09:21;;;;;;;17.63;1.70;;;13.30;77.20;;;;;;5083502;28;20278;-72
2022/09/17 12:11:54;;;;;;;8.70;1.17;;;13.50;77.50;;;;;;5078895;28;20286;-72
2022/09/17 12:14:28;;;;;;;7.73;1.00;;;13.70;72.90;;;;;;5061932;28;20373;-72
2022/09/17 12:16:59;;;;;;;8.00;0.70;;;13.80;72.50;;;;;;5083663;28;20427;-72
2022/09/17 12:19:43;;;;;;;14.30;1.60;;;13.90;71.70;;;;;;5082464;28;20048;-72
2022/09/17 12:22:18;;;;;;;13.37;1.50;;;14.00;73.20;;;;;;5067609;28;20302;-72
2022/09/17 12:24:44;;;;;;;;;;;14.10;69.70;;;;;;5068785;28;20314;-72
2022/09/17 12:27:15;;;;;;;9.10;1.83;;;14.10;64.70;;;;;;5067671;28;20618;-73
2022/09/17 12:30:04;;;;;;;8.50;1.00;;;14.10;66.30;;;;;;5083345;28;20289;-72
2022/09/17 12:32:49;;;;;;;7.03;0.57;;;14.20;66.90;;;;;;5068829;28;20280;-72
2022/09/17 12:35:41;;;;;;;9.60;1.70;;;14.30;68.90;;;;;;5067463;28;20289;-73
2022/09/17 12:38:35;;;;;;;13.53;1.33;;;14.50;67.50;;;;;;5076556;28;20760;-72
2022/09/17 12:41:32;;;;;;;10.37;1.40;;;14.70;69.10;;;;;;5066045;28;20278;-72
2022/09/17 12:44:16;;;;;;;5.30;1.00;;;14.40;68.40;;;;;;5085918;28;21045;-72
2022/09/17 12:47:11;;;;;;;7.77;0.77;;;14.10;69.90;;;;;;5081080;28;20286;-72
2022/09/17 12:50:02;;;;;;;6.32;1.02;;;13.60;69.10;;;;;;5081538;28;20766;-72
2022/09/17 12:52:51;;;;;;;8.40;1.30;;;13.00;71.30;;;;;;5083295;28;20051;-72
2022/09/17 12:55:34;;;;;;;8.70;0.90;;;12.70;75.60;;;;;;5072173;28;20836;-72
2022/09/17 12:58:21;;;;;;;12.53;1.57;;;12.80;77.00;;;;;;5084553;28;20281;-72
2022/09/17 13:00:52;;;;;;;7.97;1.00;;;13.00;76.60;;;;;;5084161;28;20343;-72
2022/09/17 13:03:43;;;;;;;7.67;1.30;;;13.20;77.10;;;;;;5082219;28;20313;-72
2022/09/17 13:06:33;;;;;;;8.00;0.93;;;13.40;71.30;;;;;;5083598;28;20298;-72
2022/09/17 13:09:27;;;;;;;3.63;0.40;;;13.40;74.60;;;;;;5065053;28;20284;-72
2022/09/17 13:12:14;;;;;;;4.57;0.50;;;13.50;72.90;;;;;;5079750;28;20266;-72
2022/09/17 13:15:00;;;;;;;6.13;0.60;;;13.50;70.10;;;;;;5083456;28;20608;-72
2022/09/17 13:17:46;;;;;;;4.67;0.40;;;13.60;70.40;;;;;;5064796;28;20369;-72
2022/09/17 13:20:31;;;;;;;10.80;1.50;;;13.60;72.60;;;;;;5081632;28;20282;-72